createdAt,value
2018-08-04T00:00:08.084Z,23.70
2018-08-04T00:05:04.924Z,23.60
2018-08-04T00:07:33.079Z,23.70
2018-08-04T00:10:01.267Z,23.60
2018-08-04T00:12:29.487Z,23.60
2018-08-04T00:14:57.758Z,23.60
2018-08-04T00:17:25.939Z,23.60
2018-08-04T00:19:54.116Z,23.50
2018-08-04T00:22:22.313Z,23.50
2018-08-04T00:24:50.548Z,23.50
2018-08-04T00:27:18.714Z,23.50
2018-08-04T00:29:46.879Z,23.40
2018-08-04T00:34:43.087Z,23.40
2018-08-04T00:37:11.266Z,23.40
2018-08-04T00:39:39.459Z,23.40
2018-08-04T00:44:35.575Z,23.30
2018-08-04T00:47:03.851Z,23.30
2018-08-04T00:49:32.020Z,23.30
2018-08-04T00:52:00.204Z,23.30
2018-08-04T00:54:28.391Z,23.30
2018-08-04T00:56:56.600Z,23.20
2018-08-04T00:59:24.829Z,23.20
2018-08-04T01:01:53.004Z,23.20
2018-08-04T01:04:21.167Z,23.20
2018-08-04T01:06:49.493Z,23.20
2018-08-04T01:09:17.659Z,23.20
2018-08-04T01:11:45.866Z,23.10
2018-08-04T01:14:14.045Z,23.10
2018-08-04T01:16:42.315Z,23.10
2018-08-04T01:19:10.530Z,23.10
2018-08-04T01:21:38.722Z,23.10
2018-08-04T01:26:35.860Z,23.00
2018-08-04T01:29:04.068Z,23.00
2018-08-04T01:31:32.266Z,23.00
2018-08-04T01:34:00.528Z,23.00
2018-08-04T01:36:28.724Z,22.90
2018-08-04T01:38:56.941Z,22.90
2018-08-04T01:41:25.132Z,22.90
2018-08-04T01:46:21.339Z,22.80
2018-08-04T01:48:49.520Z,22.80
2018-08-04T01:51:17.714Z,22.80
2018-08-04T01:56:14.430Z,22.80
2018-08-04T01:58:43.184Z,22.80
2018-08-04T02:01:11.353Z,22.70
2018-08-04T02:03:39.543Z,22.70
2018-08-04T02:06:07.825Z,22.70
2018-08-04T02:08:35.995Z,22.70
2018-08-04T02:11:04.287Z,22.60
2018-08-04T02:13:32.461Z,22.60
2018-08-04T02:16:00.719Z,22.60
2018-08-04T02:18:29.508Z,22.60
2018-08-04T02:20:57.731Z,22.50
2018-08-04T02:23:25.960Z,22.50
2018-08-04T02:25:54.270Z,22.50
2018-08-04T02:28:22.438Z,22.50
2018-08-04T02:30:50.645Z,22.50
2018-08-04T02:33:18.836Z,22.40
2018-08-04T02:35:47.084Z,22.40
2018-08-04T02:38:15.235Z,22.40
2018-08-04T02:40:43.395Z,22.40
2018-08-04T02:43:11.571Z,22.30
2018-08-04T02:45:39.815Z,22.30
2018-08-04T02:48:08.001Z,22.30
2018-08-04T02:50:36.422Z,22.20
2018-08-04T02:53:04.609Z,22.20
2018-08-04T02:58:00.791Z,22.20
2018-08-04T03:00:28.982Z,22.10
2018-08-04T03:02:57.160Z,22.10
2018-08-04T03:05:25.419Z,22.10
2018-08-04T03:07:53.592Z,22.00
2018-08-04T03:10:21.862Z,22.00
2018-08-04T03:12:50.038Z,22.00
2018-08-04T03:15:18.307Z,21.90
2018-08-04T03:17:46.498Z,21.90
2018-08-04T03:20:14.675Z,21.90
2018-08-04T03:22:42.937Z,21.90
2018-08-04T03:25:11.215Z,21.90
2018-08-04T03:27:39.485Z,21.80
2018-08-04T03:30:07.786Z,21.80
2018-08-04T03:32:35.988Z,21.80
2018-08-04T03:35:04.679Z,21.80
2018-08-04T03:40:00.864Z,21.70
2018-08-04T03:42:29.090Z,21.70
2018-08-04T03:44:57.295Z,21.70
2018-08-04T03:47:25.485Z,21.60
2018-08-04T03:49:53.659Z,21.60
2018-08-04T03:52:21.836Z,21.60
2018-08-04T03:54:50.362Z,21.60
2018-08-04T03:57:18.557Z,21.50
2018-08-04T03:59:46.767Z,21.50
2018-08-04T04:02:14.911Z,21.50
2018-08-04T04:07:11.020Z,21.50
2018-08-04T04:09:39.262Z,21.40
2018-08-04T04:12:07.427Z,21.40
2018-08-04T04:14:35.624Z,21.40
2018-08-04T04:17:03.812Z,21.40
2018-08-04T04:19:31.995Z,21.30
2018-08-04T04:22:00.239Z,21.30
2018-08-04T04:24:28.431Z,21.30
2018-08-04T04:26:56.682Z,21.30
2018-08-04T04:29:24.852Z,21.20
2018-08-04T04:31:53.123Z,21.20
2018-08-04T04:34:21.299Z,21.20
2018-08-04T04:36:49.589Z,21.20
2018-08-04T04:39:17.738Z,21.20
2018-08-04T04:41:46.025Z,21.20
2018-08-04T04:44:14.879Z,21.10
2018-08-04T04:46:43.103Z,21.10
2018-08-04T04:49:12.456Z,21.10
2018-08-04T04:51:41.576Z,21.10
2018-08-04T04:54:09.805Z,21.10
2018-08-04T04:56:38.027Z,21.10
2018-08-04T04:59:06.211Z,21.10
2018-08-04T05:01:34.388Z,21.00
2018-08-04T05:04:02.561Z,21.00
2018-08-04T05:06:30.866Z,21.00
2018-08-04T05:08:59.277Z,21.00
2018-08-04T05:11:27.435Z,21.00
2018-08-04T05:13:55.738Z,21.00
2018-08-04T05:16:23.928Z,21.00
2018-08-04T05:18:52.104Z,21.00
2018-08-04T05:21:20.275Z,20.90
2018-08-04T05:23:48.460Z,20.90
2018-08-04T05:26:16.824Z,21.00
2018-08-04T05:28:45.000Z,21.00
2018-08-04T05:31:13.195Z,20.90
2018-08-04T05:33:42.103Z,20.90
2018-08-04T05:36:10.337Z,20.90
2018-08-04T05:38:39.296Z,21.00
2018-08-04T05:41:07.478Z,21.00
2018-08-04T05:43:35.702Z,21.00
2018-08-04T05:46:04.591Z,21.00
2018-08-04T05:48:32.770Z,21.00
2018-08-04T05:51:00.949Z,21.00
2018-08-04T05:53:29.132Z,21.00
2018-08-04T05:55:58.375Z,21.00
2018-08-04T05:58:26.558Z,21.00
2018-08-04T06:00:54.735Z,21.00
2018-08-04T06:03:23.093Z,21.00
2018-08-04T06:05:51.276Z,21.10
2018-08-04T06:08:19.479Z,21.10
2018-08-04T06:10:48.284Z,21.20
2018-08-04T06:13:16.480Z,21.40
2018-08-04T06:18:12.939Z,21.80
2018-08-04T06:20:41.111Z,21.90
2018-08-04T06:23:09.322Z,22.10
2018-08-04T06:25:37.652Z,22.30
2018-08-04T06:28:05.837Z,22.40
2018-08-04T06:30:34.055Z,22.60
2018-08-04T06:33:02.215Z,22.80
2018-08-04T06:35:30.491Z,22.90
2018-08-04T06:37:58.682Z,23.10
2018-08-04T06:40:26.873Z,23.20
2018-08-04T06:42:55.048Z,23.30
2018-08-04T06:45:23.307Z,23.50
2018-08-04T06:47:51.479Z,23.60
2018-08-04T06:50:19.704Z,23.70
2018-08-04T06:52:47.938Z,23.80
2018-08-04T06:55:16.228Z,23.90
2018-08-04T06:57:44.461Z,24.10
2018-08-04T07:00:12.635Z,24.20
2018-08-04T07:02:40.808Z,24.30
2018-08-04T07:05:09.110Z,24.40
2018-08-04T07:07:37.344Z,24.50
2018-08-04T07:10:05.567Z,24.60
2018-08-04T07:12:34.227Z,24.70
2018-08-04T07:15:03.475Z,24.80
2018-08-04T07:17:31.672Z,24.90
2018-08-04T07:19:59.877Z,24.90
2018-08-04T07:22:28.084Z,25.00
2018-08-04T07:24:56.358Z,25.10
2018-08-04T07:27:24.553Z,25.20
2018-08-04T07:29:52.725Z,25.20
2018-08-04T07:34:51.343Z,25.30
2018-08-04T07:37:20.527Z,25.40
2018-08-04T07:42:16.754Z,25.40
2018-08-04T07:44:44.966Z,25.50
2018-08-04T07:47:13.152Z,25.60
2018-08-04T07:49:41.336Z,25.60
2018-08-04T07:52:09.527Z,25.60
2018-08-04T07:54:38.286Z,25.60
2018-08-04T07:57:06.582Z,25.70
2018-08-04T07:59:34.809Z,25.70
2018-08-04T08:02:02.935Z,25.70
2018-08-04T08:04:31.115Z,25.80
2018-08-04T08:06:59.383Z,25.90
2018-08-04T08:09:27.555Z,25.90
2018-08-04T08:11:55.754Z,26.00
2018-08-04T08:14:23.979Z,26.00
2018-08-04T08:16:52.390Z,26.20
2018-08-04T08:19:20.591Z,26.20
2018-08-04T08:21:48.815Z,26.20
2018-08-04T08:24:16.995Z,26.30
2018-08-04T08:26:45.275Z,26.30
2018-08-04T08:29:13.493Z,26.40
2018-08-04T08:31:41.788Z,26.50
2018-08-04T08:34:09.948Z,26.50
2018-08-04T08:39:07.500Z,26.70
2018-08-04T08:41:35.668Z,26.70
2018-08-04T08:44:03.920Z,26.80
2018-08-04T08:46:32.184Z,26.90
2018-08-04T08:49:00.355Z,26.90
2018-08-04T08:51:28.539Z,27.00
2018-08-04T08:53:56.759Z,27.10
2018-08-04T08:56:25.040Z,27.20
2018-08-04T09:01:21.274Z,27.30
2018-08-04T09:03:49.468Z,27.40
2018-08-04T09:06:17.716Z,27.50
2018-08-04T09:08:45.903Z,27.50
2018-08-04T09:13:42.040Z,27.70
2018-08-04T09:16:10.259Z,27.80
2018-08-04T09:18:38.483Z,27.80
2018-08-04T09:21:06.691Z,27.90
2018-08-04T09:23:34.862Z,28.00
2018-08-04T09:26:03.100Z,28.00
2018-08-04T09:28:31.328Z,28.10
2018-08-04T09:30:59.599Z,28.20
2018-08-04T09:33:27.731Z,28.30
2018-08-04T09:36:59.027Z,28.30
2018-08-04T09:39:27.264Z,28.40
2018-08-04T09:41:55.410Z,28.50
2018-08-04T09:44:23.616Z,28.60
2018-08-04T09:49:19.821Z,28.70
2018-08-04T09:51:47.992Z,28.80
2018-08-04T09:54:18.409Z,29.00
2018-08-04T09:56:46.732Z,29.20
2018-08-04T10:01:42.945Z,29.40
2018-08-04T10:04:11.123Z,29.40
2018-08-04T10:06:39.357Z,29.50
2018-08-04T10:09:12.256Z,29.50
2018-08-04T10:11:40.472Z,29.50
2018-08-04T10:14:08.664Z,29.60
2018-08-04T10:16:36.875Z,29.60
2018-08-04T10:19:05.090Z,29.60
2018-08-04T10:21:33.635Z,29.70
2018-08-04T10:24:01.923Z,29.70
2018-08-04T10:26:30.221Z,29.80
2018-08-04T10:28:58.392Z,29.80
2018-08-04T10:31:26.575Z,29.80
2018-08-04T10:33:54.783Z,29.90
2018-08-04T10:36:23.108Z,29.90
2018-08-04T10:38:51.306Z,29.90
2018-08-04T10:41:19.489Z,30.00
2018-08-04T10:46:15.712Z,30.10
2018-08-04T10:48:43.939Z,30.20
2018-08-04T10:51:12.094Z,30.20
2018-08-04T10:53:40.520Z,30.30
2018-08-04T10:56:08.799Z,30.40
2018-08-04T10:58:36.992Z,30.50
2018-08-04T11:01:05.221Z,30.80
2018-08-04T11:03:33.411Z,31.00
2018-08-04T11:06:02.076Z,31.20
2018-08-04T11:08:30.311Z,31.60
2018-08-04T11:10:58.448Z,31.90
2018-08-04T11:13:26.891Z,32.00
2018-08-04T11:15:55.207Z,32.20
2018-08-04T11:18:23.403Z,32.30
2018-08-04T11:20:51.852Z,32.50
2018-08-04T11:23:20.048Z,32.60
2018-08-04T11:25:48.307Z,32.60
2018-08-04T11:28:16.848Z,32.80
2018-08-04T11:33:13.003Z,32.90
2018-08-04T11:35:41.337Z,33.00
2018-08-04T11:38:09.596Z,33.10
2018-08-04T11:40:37.818Z,33.10
2018-08-04T11:43:06.006Z,33.10
2018-08-04T11:45:34.593Z,33.20
2018-08-04T11:48:02.745Z,33.20
2018-08-04T11:50:30.984Z,33.30
2018-08-04T11:52:59.424Z,33.30
2018-08-04T11:55:27.656Z,33.30
2018-08-04T12:00:24.883Z,33.30
2018-08-04T12:02:53.819Z,33.30
2018-08-04T12:07:49.981Z,33.40
2018-08-04T12:10:18.207Z,33.50
2018-08-04T12:12:46.408Z,33.50
2018-08-04T12:17:42.515Z,33.50
2018-08-04T12:20:10.735Z,33.40
2018-08-04T12:22:38.910Z,33.50
2018-08-04T12:25:07.071Z,33.30
2018-08-04T12:30:03.312Z,33.40
2018-08-04T12:32:31.835Z,33.30
2018-08-04T12:35:00.312Z,33.30
2018-08-04T12:37:28.816Z,33.30
2018-08-04T12:39:57.646Z,33.40
2018-08-04T12:42:25.833Z,33.40
2018-08-04T12:44:54.135Z,33.30
2018-08-04T12:47:22.307Z,33.30
2018-08-04T12:49:50.520Z,33.30
2018-08-04T12:52:18.764Z,33.30
2018-08-04T12:54:47.193Z,33.30
2018-08-04T12:59:44.096Z,33.20
2018-08-04T13:04:40.191Z,33.10
2018-08-04T13:09:37.101Z,33.20
2018-08-04T13:12:05.830Z,33.10
2018-08-04T13:14:34.400Z,33.10
2018-08-04T13:17:02.956Z,33.10
2018-08-04T13:19:31.521Z,32.90
2018-08-04T13:22:00.244Z,32.90
2018-08-04T13:24:28.459Z,32.80
2018-08-04T13:26:56.672Z,32.70
2018-08-04T13:29:24.867Z,32.70
2018-08-04T13:31:53.320Z,32.70
2018-08-04T13:34:21.562Z,32.60
2018-08-04T13:36:49.965Z,32.50
2018-08-04T13:39:18.216Z,32.40
2018-08-04T13:41:46.451Z,32.50
2018-08-04T13:44:14.981Z,32.50
2018-08-04T13:46:43.270Z,32.50
2018-08-04T13:49:11.453Z,32.50
2018-08-04T13:51:39.683Z,32.50
2018-08-04T13:56:36.319Z,32.40
2018-08-04T13:59:04.998Z,32.40
2018-08-04T14:01:33.238Z,32.20
2018-08-04T14:04:01.452Z,32.30
2018-08-04T14:06:29.970Z,32.30
2018-08-04T14:08:58.539Z,32.40
2018-08-04T14:13:54.896Z,32.30
2018-08-04T14:16:23.919Z,32.40
2018-08-04T14:18:52.136Z,32.30
2018-08-04T14:21:20.401Z,32.30
2018-08-04T14:23:48.664Z,32.20
2018-08-04T14:26:16.861Z,31.80
2018-08-04T14:28:45.338Z,31.70
2018-08-04T14:31:13.773Z,31.90
2018-08-04T14:33:42.060Z,32.10
2018-08-04T14:36:10.268Z,32.20
2018-08-04T14:38:38.702Z,32.30
2018-08-04T14:41:06.897Z,32.40
2018-08-04T14:43:35.075Z,32.40
2018-08-04T14:46:03.339Z,32.40
2018-08-04T14:48:31.539Z,32.40
2018-08-04T14:50:59.735Z,32.40
2018-08-04T15:00:51.852Z,32.30
2018-08-04T15:03:20.048Z,32.20
2018-08-04T15:05:48.245Z,32.20
2018-08-04T15:08:16.477Z,32.10
2018-08-04T15:10:44.660Z,32.00
2018-08-04T15:13:12.855Z,32.00
2018-08-04T15:15:41.036Z,32.00
2018-08-04T15:18:09.235Z,32.00
2018-08-04T15:25:33.662Z,31.80
2018-08-04T15:28:01.840Z,31.80
2018-08-04T15:30:30.026Z,31.70
2018-08-04T15:32:58.256Z,31.60
2018-08-04T15:35:26.439Z,31.60
2018-08-04T15:37:54.628Z,31.70
2018-08-04T15:40:22.855Z,31.60
2018-08-04T15:45:20.463Z,31.50
2018-08-04T15:47:48.637Z,31.50
2018-08-04T15:50:16.839Z,31.50
2018-08-04T15:52:45.061Z,31.50
2018-08-04T15:55:13.254Z,31.50
2018-08-04T15:57:41.430Z,31.50
2018-08-04T16:02:37.953Z,31.30
2018-08-04T16:05:06.156Z,31.40
2018-08-04T16:07:34.479Z,31.40
2018-08-04T16:10:02.661Z,31.30
2018-08-04T16:12:31.101Z,31.20
2018-08-04T16:14:59.324Z,31.20
2018-08-04T16:17:27.548Z,31.10
2018-08-04T16:19:55.736Z,31.10
2018-08-04T16:22:24.064Z,31.10
2018-08-04T16:24:52.275Z,31.10
2018-08-04T16:27:20.494Z,31.10
2018-08-04T16:29:49.538Z,31.10
2018-08-04T16:34:45.716Z,31.00
2018-08-04T16:37:13.882Z,31.00
2018-08-04T16:39:42.159Z,30.80
2018-08-04T16:42:10.336Z,30.70
2018-08-04T16:44:39.139Z,30.70
2018-08-04T16:47:07.404Z,30.70
2018-08-04T16:49:35.589Z,30.60
2018-08-04T16:52:03.772Z,30.60
2018-08-04T16:54:31.982Z,30.60
2018-08-04T16:59:28.197Z,30.40
2018-08-04T17:01:56.360Z,30.40
2018-08-04T17:04:24.547Z,30.40
2018-08-04T17:06:52.703Z,30.30
2018-08-04T17:09:20.886Z,30.20
2018-08-04T17:11:49.052Z,30.10
2018-08-04T17:14:17.236Z,30.10
2018-08-04T17:16:45.452Z,30.00
2018-08-04T17:21:41.591Z,29.80
2018-08-04T17:24:09.788Z,29.70
2018-08-04T17:26:37.976Z,29.60
2018-08-04T17:29:06.168Z,29.60
2018-08-04T17:31:34.339Z,29.50
2018-08-04T17:34:02.514Z,29.40
2018-08-04T17:36:30.728Z,29.30
2018-08-04T17:41:26.888Z,29.20
2018-08-04T17:43:55.067Z,29.10
2018-08-04T17:46:23.223Z,29.00
2018-08-04T17:48:51.431Z,28.90
2018-08-04T17:51:19.616Z,28.80
2018-08-04T17:53:47.783Z,28.80
2018-08-04T17:56:15.987Z,28.70
2018-08-04T17:58:44.160Z,28.60
2018-08-04T18:01:12.364Z,28.50
2018-08-04T18:03:40.548Z,28.40
2018-08-04T18:06:08.736Z,28.30
2018-08-04T18:08:36.895Z,28.30
2018-08-04T18:11:05.087Z,28.20
2018-08-04T18:13:33.287Z,28.00
2018-08-04T18:16:01.595Z,27.90
2018-08-04T18:18:29.807Z,27.80
2018-08-04T18:20:58.004Z,27.70
2018-08-04T18:23:26.199Z,27.60
2018-08-04T18:25:54.378Z,27.60
2018-08-04T18:28:22.566Z,27.50
2018-08-04T18:33:18.684Z,27.30
2018-08-04T18:35:46.876Z,27.20
2018-08-04T18:38:15.079Z,27.10
2018-08-04T18:40:43.269Z,27.00
2018-08-04T18:43:11.480Z,26.90
2018-08-04T18:45:39.684Z,26.80
2018-08-04T18:50:35.784Z,26.70
2018-08-04T18:53:04.045Z,26.60
2018-08-04T18:55:32.216Z,26.40
2018-08-04T18:58:00.384Z,26.30
2018-08-04T19:00:28.596Z,26.20
2018-08-04T19:02:56.795Z,26.00
2018-08-04T19:07:52.940Z,25.90
2018-08-04T19:12:49.053Z,25.80
2018-08-04T19:15:17.229Z,25.80
2018-08-04T19:17:45.419Z,25.70
2018-08-04T19:20:13.632Z,25.50
2018-08-04T19:22:42.670Z,25.40
2018-08-04T19:25:10.863Z,25.30
2018-08-04T19:27:39.043Z,25.30
2018-08-04T19:32:35.471Z,25.10
2018-08-04T19:35:04.091Z,25.00
2018-08-04T19:37:32.265Z,24.80
2018-08-04T19:40:00.457Z,24.70
2018-08-04T19:42:28.695Z,24.60
2018-08-04T19:47:24.877Z,24.40
2018-08-04T19:49:53.061Z,24.40
2018-08-04T19:52:21.261Z,24.30
2018-08-04T19:54:49.513Z,24.30
2018-08-04T19:57:17.686Z,24.20
2018-08-04T19:59:45.859Z,24.20
2018-08-04T20:02:14.072Z,24.20
2018-08-04T20:07:16.815Z,24.00
2018-08-04T20:09:44.988Z,23.90
2018-08-04T20:12:13.159Z,23.80
2018-08-04T20:14:41.382Z,23.70
2018-08-04T20:17:09.570Z,23.70
2018-08-04T20:22:11.380Z,23.60
2018-08-04T20:24:39.580Z,23.50
2018-08-04T20:27:07.843Z,23.50
2018-08-04T20:29:36.070Z,23.40
2018-08-04T20:32:04.382Z,23.40
2018-08-04T20:34:32.836Z,23.30
2018-08-04T20:37:01.036Z,23.30
2018-08-04T20:39:29.223Z,23.20
2018-08-04T20:41:57.492Z,23.20
2018-08-04T20:44:25.695Z,23.10
2018-08-04T20:46:53.933Z,23.10
2018-08-04T20:49:22.107Z,23.10
2018-08-04T20:51:50.304Z,23.00
2018-08-04T20:54:18.481Z,23.00
2018-08-04T20:56:46.757Z,23.00
2018-08-04T20:59:14.967Z,23.00
2018-08-04T21:04:19.312Z,22.90
2018-08-04T21:09:16.036Z,22.90
2018-08-04T21:11:51.775Z,22.80
2018-08-04T21:14:21.462Z,22.80
2018-08-04T21:16:50.642Z,22.70
2018-08-04T21:19:19.872Z,22.70
2018-08-04T21:21:48.076Z,22.70
2018-08-04T21:24:16.979Z,22.60
2018-08-04T21:31:41.152Z,22.60
2018-08-04T21:34:10.089Z,22.60
2018-08-04T21:39:08.723Z,22.50
2018-08-04T21:41:36.917Z,22.50
2018-08-04T21:44:05.146Z,22.50
2018-08-04T21:46:33.340Z,22.40
2018-08-04T21:49:01.539Z,22.40
2018-08-04T21:51:29.720Z,22.30
2018-08-04T21:53:58.252Z,22.30
2018-08-04T21:56:26.485Z,22.30
2018-08-04T21:58:54.647Z,22.30
2018-08-04T22:01:22.886Z,22.20
2018-08-04T22:03:51.084Z,22.30
2018-08-04T22:06:19.400Z,22.20
2018-08-04T22:11:21.164Z,22.20
2018-08-04T22:16:17.326Z,22.10
2018-08-04T22:21:13.463Z,22.10
2018-08-04T22:23:41.669Z,22.00
2018-08-04T22:26:09.884Z,22.00
2018-08-04T22:28:38.070Z,22.00
2018-08-04T22:31:06.331Z,22.00
2018-08-04T22:33:34.519Z,22.00
2018-08-04T22:36:02.703Z,21.90
2018-08-04T22:40:58.923Z,21.90
2018-08-04T22:43:27.101Z,21.90
2018-08-04T22:45:59.204Z,21.90
2018-08-04T22:48:27.404Z,21.80
2018-08-04T22:50:55.716Z,21.80
2018-08-04T22:53:23.896Z,21.70
2018-08-04T22:55:52.108Z,21.70
2018-08-04T22:58:20.348Z,21.70
2018-08-04T23:00:48.546Z,21.70
2018-08-04T23:03:16.752Z,21.60
2018-08-04T23:05:44.952Z,21.60
2018-08-04T23:08:13.600Z,21.60
2018-08-04T23:10:42.143Z,21.50
2018-08-04T23:13:10.957Z,21.50
2018-08-04T23:15:39.195Z,21.50
2018-08-04T23:18:07.799Z,21.40
2018-08-04T23:23:04.052Z,21.40
2018-08-04T23:25:32.299Z,21.30
2018-08-04T23:28:00.492Z,21.30
2018-08-04T23:35:25.843Z,21.20
2018-08-04T23:37:54.018Z,21.20
2018-08-04T23:40:22.498Z,21.10
2018-08-04T23:42:50.746Z,21.10
2018-08-04T23:45:18.999Z,21.10
2018-08-04T23:47:47.191Z,21.10
2018-08-04T23:50:15.394Z,21.00
2018-08-04T23:52:43.592Z,21.00
2018-08-04T23:55:11.859Z,21.00
2018-08-04T23:57:40.813Z,20.90
